sensor_id;sensor_type;location;lat;lon;timestamp;pressure;altitude;pressure_sealevel;temperature;humidity
20003;BME280;10162;41.600;23.806;2023-12-04T00:03:28;95196.84;;;8.17;100.00
20003;BME280;10162;41.600;23.806;2023-12-04T00:05:54;95193.25;;;8.18;100.00
20003;BME280;10162;41.600;23.806;2023-12-04T00:12:13;95193.06;;;8.05;100.00
20003;BME280;10162;41.600;23.806;2023-12-04T00:14:39;95198.25;;;8.05;100.00
20003;BME280;10162;41.600;23.806;2023-12-04T00:17:05;95184.31;;;7.83;100.00
20003;BME280;10162;41.600;23.806;2023-12-04T00:23:25;95208.06;;;8.03;100.00
20003;BME280;10162;41.600;23.806;2023-12-04T00:25:50;95202.84;;;8.03;100.00
20003;BME280;10162;41.600;23.806;2023-12-04T00:32:19;95206.69;;;7.69;100.00
20003;BME280;10162;41.600;23.806;2023-12-04T00:35:27;95227.81;;;7.74;100.00
20003;BME280;10162;41.600;23.806;2023-12-04T00:37:51;95228.69;;;7.67;100.00
20003;BME280;10162;41.600;23.806;2023-12-04T00:44:14;95244.69;;;7.56;100.00
20003;BME280;10162;41.600;23.806;2023-12-04T00:46:40;95254.69;;;7.44;100.00
20003;BME280;10162;41.600;23.806;2023-12-04T00:49:24;95230.19;;;7.38;100.00
20003;BME280;10162;41.600;23.806;2023-12-04T00:51:50;95211.81;;;7.40;100.00
20003;BME280;10162;41.600;23.806;2023-12-04T00:54:16;95220.09;;;7.35;100.00
20003;BME280;10162;41.600;23.806;2023-12-04T00:56:42;95236.53;;;7.36;100.00
20003;BME280;10162;41.600;23.806;2023-12-04T01:03:02;95221.69;;;7.44;100.00
20003;BME280;10162;41.600;23.806;2023-12-04T01:05:28;95247.41;;;7.62;100.00
20003;BME280;10162;41.600;23.806;2023-12-04T01:07:53;95248.56;;;7.60;100.00
20003;BME280;10162;41.600;23.806;2023-12-04T01:14:16;95248.44;;;7.53;100.00
20003;BME280;10162;41.600;23.806;2023-12-04T01:16:42;95253.22;;;7.41;100.00
20003;BME280;10162;41.600;23.806;2023-12-04T01:23:04;95263.19;;;7.38;100.00
20003;BME280;10162;41.600;23.806;2023-12-04T01:25:30;95229.03;;;7.10;100.00
20003;BME280;10162;41.600;23.806;2023-12-04T01:27:56;95275.72;;;7.34;100.00
20003;BME280;10162;41.600;23.806;2023-12-04T01:30:23;95229.38;;;7.07;100.00
20003;BME280;10162;41.600;23.806;2023-12-04T01:32:48;95234.91;;;7.04;100.00
20003;BME280;10162;41.600;23.806;2023-12-04T01:35:14;95215.88;;;7.12;100.00
20003;BME280;10162;41.600;23.806;2023-12-04T01:37:40;95246.06;;;7.43;100.00
20003;BME280;10162;41.600;23.806;2023-12-04T01:44:05;95219.91;;;7.14;100.00
20003;BME280;10162;41.600;23.806;2023-12-04T01:46:38;95250.34;;;7.36;100.00
20003;BME280;10162;41.600;23.806;2023-12-04T01:52:33;95231.41;;;7.20;100.00
20003;BME280;10162;41.600;23.806;2023-12-04T01:54:59;95277.28;;;7.43;100.00
20003;BME280;10162;41.600;23.806;2023-12-04T01:57:25;95259.00;;;7.29;100.00
20003;BME280;10162;41.600;23.806;2023-12-04T02:03:45;95253.56;;;7.07;100.00
20003;BME280;10162;41.600;23.806;2023-12-04T02:06:16;95266.38;;;7.17;100.00
20003;BME280;10162;41.600;23.806;2023-12-04T02:12:39;95270.19;;;6.98;100.00
20003;BME280;10162;41.600;23.806;2023-12-04T02:15:05;95263.81;;;7.09;100.00
20003;BME280;10162;41.600;23.806;2023-12-04T02:17:32;95274.88;;;7.11;100.00
20003;BME280;10162;41.600;23.806;2023-12-04T02:24:07;95250.34;;;7.05;100.00
20003;BME280;10162;41.600;23.806;2023-12-04T02:27:26;95278.38;;;7.18;100.00
20003;BME280;10162;41.600;23.806;2023-12-04T02:33:26;95280.16;;;7.18;100.00
20003;BME280;10162;41.600;23.806;2023-12-04T02:36:03;95246.50;;;6.93;100.00
20003;BME280;10162;41.600;23.806;2023-12-04T02:42:30;95264.50;;;6.95;100.00
20003;BME280;10162;41.600;23.806;2023-12-04T02:44:59;95278.22;;;6.81;100.00
20003;BME280;10162;41.600;23.806;2023-12-04T02:47:25;95284.41;;;6.80;100.00
20003;BME280;10162;41.600;23.806;2023-12-04T02:53:45;95262.56;;;6.50;100.00
20003;BME280;10162;41.600;23.806;2023-12-04T02:56:12;95296.00;;;6.53;100.00
20003;BME280;10162;41.600;23.806;2023-12-04T03:02:31;95252.06;;;6.27;100.00
20003;BME280;10162;41.600;23.806;2023-12-04T03:04:57;95269.72;;;6.48;100.00
20003;BME280;10162;41.600;23.806;2023-12-04T03:07:23;95297.31;;;6.41;100.00
20003;BME280;10162;41.600;23.806;2023-12-04T03:13:47;95273.84;;;6.02;100.00
20003;BME280;10162;41.600;23.806;2023-12-04T03:16:26;95278.84;;;5.95;100.00
20003;BME280;10162;41.600;23.806;2023-12-04T03:23:05;95311.28;;;6.32;100.00
20003;BME280;10162;41.600;23.806;2023-12-04T03:25:31;95287.28;;;6.21;100.00
20003;BME280;10162;41.600;23.806;2023-12-04T03:27:57;95282.25;;;6.20;100.00
20003;BME280;10162;41.600;23.806;2023-12-04T03:30:22;95301.88;;;6.31;100.00
20003;BME280;10162;41.600;23.806;2023-12-04T03:32:48;95323.94;;;6.35;100.00
20003;BME280;10162;41.600;23.806;2023-12-04T03:35:14;95316.28;;;6.49;100.00
20003;BME280;10162;41.600;23.806;2023-12-04T03:37:40;95306.72;;;6.34;100.00
20003;BME280;10162;41.600;23.806;2023-12-04T03:43:35;95326.66;;;6.49;100.00
20003;BME280;10162;41.600;23.806;2023-12-04T03:46:00;95331.06;;;6.41;100.00
20003;BME280;10162;41.600;23.806;2023-12-04T03:52:20;95332.72;;;6.17;100.00
20003;BME280;10162;41.600;23.806;2023-12-04T03:54:47;95331.41;;;6.13;100.00
20003;BME280;10162;41.600;23.806;2023-12-04T03:57:13;95335.31;;;6.17;100.00
20003;BME280;10162;41.600;23.806;2023-12-04T04:03:38;95337.41;;;6.06;100.00
20003;BME280;10162;41.600;23.806;2023-12-04T04:06:20;95357.69;;;6.18;100.00
20003;BME280;10162;41.600;23.806;2023-12-04T04:12:53;95339.69;;;6.01;100.00
20003;BME280;10162;41.600;23.806;2023-12-04T04:15:22;95350.06;;;6.09;100.00
20003;BME280;10162;41.600;23.806;2023-12-04T04:17:48;95357.22;;;6.15;100.00
20003;BME280;10162;41.600;23.806;2023-12-04T04:24:07;95352.50;;;6.02;100.00
20003;BME280;10162;41.600;23.806;2023-12-04T04:26:43;95357.34;;;6.05;100.00
20003;BME280;10162;41.600;23.806;2023-12-04T04:33:02;95360.63;;;6.23;100.00
20003;BME280;10162;41.600;23.806;2023-12-04T04:35:30;95395.66;;;6.44;100.00
20003;BME280;10162;41.600;23.806;2023-12-04T04:37:55;95356.72;;;6.19;100.00
20003;BME280;10162;41.600;23.806;2023-12-04T04:44:15;95400.38;;;6.40;100.00
20003;BME280;10162;41.600;23.806;2023-12-04T04:46:41;95389.16;;;6.40;100.00
20003;BME280;10162;41.600;23.806;2023-12-04T04:52:14;95390.47;;;6.36;100.00
20003;BME280;10162;41.600;23.806;2023-12-04T04:54:40;95395.19;;;6.24;100.00
20003;BME280;10162;41.600;23.806;2023-12-04T04:57:06;95392.44;;;6.26;100.00
20003;BME280;10162;41.600;23.806;2023-12-04T05:03:25;95428.09;;;6.15;100.00
20003;BME280;10162;41.600;23.806;2023-12-04T05:05:52;95401.16;;;5.92;100.00
20003;BME280;10162;41.600;23.806;2023-12-04T05:12:12;95409.25;;;5.89;100.00
20003;BME280;10162;41.600;23.806;2023-12-04T05:14:37;95400.50;;;5.90;100.00
20003;BME280;10162;41.600;23.806;2023-12-04T05:17:03;95401.25;;;5.82;100.00
20003;BME280;10162;41.600;23.806;2023-12-04T05:23:23;95421.91;;;5.92;100.00
20003;BME280;10162;41.600;23.806;2023-12-04T05:25:49;95428.31;;;5.80;100.00
20003;BME280;10162;41.600;23.806;2023-12-04T05:32:35;95410.22;;;5.46;100.00
20003;BME280;10162;41.600;23.806;2023-12-04T05:35:10;95415.66;;;5.77;100.00
20003;BME280;10162;41.600;23.806;2023-12-04T05:37:36;95454.72;;;5.75;100.00
20003;BME280;10162;41.600;23.806;2023-12-04T05:43:56;95434.44;;;5.71;100.00
20003;BME280;10162;41.600;23.806;2023-12-04T05:46:21;95432.47;;;5.57;100.00
20003;BME280;10162;41.600;23.806;2023-12-04T05:52:42;95465.66;;;5.87;100.00
20003;BME280;10162;41.600;23.806;2023-12-04T05:55:08;95452.31;;;5.82;100.00
20003;BME280;10162;41.600;23.806;2023-12-04T05:57:34;95457.41;;;5.92;100.00
20003;BME280;10162;41.600;23.806;2023-12-04T06:00:07;95464.72;;;6.04;100.00
20003;BME280;10162;41.600;23.806;2023-12-04T06:06:35;95446.53;;;5.54;100.00
20003;BME280;10162;41.600;23.806;2023-12-04T06:13:01;95466.75;;;5.43;100.00
20003;BME280;10162;41.600;23.806;2023-12-04T06:16:00;95494.03;;;5.89;100.00
20003;BME280;10162;41.600;23.806;2023-12-04T06:22:33;95486.78;;;5.66;100.00
20003;BME280;10162;41.600;23.806;2023-12-04T06:25:17;95486.00;;;6.16;100.00
20003;BME280;10162;41.600;23.806;2023-12-04T06:27:44;95451.91;;;5.95;100.00
20003;BME280;10162;41.600;23.806;2023-12-04T06:34:04;95524.84;;;6.34;100.00
20003;BME280;10162;41.600;23.806;2023-12-04T06:36:31;95533.31;;;6.52;100.00
20003;BME280;10162;41.600;23.806;2023-12-04T06:42:23;95521.97;;;6.53;100.00
20003;BME280;10162;41.600;23.806;2023-12-04T06:44:49;95516.59;;;6.46;100.00
20003;BME280;10162;41.600;23.806;2023-12-04T06:47:17;95510.09;;;6.42;100.00
20003;BME280;10162;41.600;23.806;2023-12-04T06:53:37;95538.41;;;6.94;100.00
20003;BME280;10162;41.600;23.806;2023-12-04T06:56:05;95549.94;;;7.07;100.00
20003;BME280;10162;41.600;23.806;2023-12-04T06:59:08;95557.09;;;7.05;100.00
20003;BME280;10162;41.600;23.806;2023-12-04T07:01:34;95543.59;;;7.02;100.00
20003;BME280;10162;41.600;23.806;2023-12-04T07:04:00;95510.47;;;6.80;100.00
20003;BME280;10162;41.600;23.806;2023-12-04T07:06:25;95535.97;;;7.09;100.00
20003;BME280;10162;41.600;23.806;2023-12-04T07:12:45;95553.19;;;7.34;100.00
20003;BME280;10162;41.600;23.806;2023-12-04T07:15:11;95569.09;;;7.55;100.00
20003;BME280;10162;41.600;23.806;2023-12-04T07:17:38;95543.06;;;7.55;100.00
20003;BME280;10162;41.600;23.806;2023-12-04T07:20:04;95559.91;;;7.75;100.00
20003;BME280;10162;41.600;23.806;2023-12-04T07:22:33;95550.00;;;7.71;100.00
20003;BME280;10162;41.600;23.806;2023-12-04T07:25:00;95541.63;;;8.08;100.00
20003;BME280;10162;41.600;23.806;2023-12-04T07:27:26;95535.53;;;8.15;100.00
20003;BME280;10162;41.600;23.806;2023-12-04T07:33:45;95549.81;;;8.36;100.00
20003;BME280;10162;41.600;23.806;2023-12-04T07:36:11;95559.31;;;8.59;100.00
20003;BME280;10162;41.600;23.806;2023-12-04T07:39:03;95581.44;;;8.63;100.00
20003;BME280;10162;41.600;23.806;2023-12-04T07:41:31;95565.91;;;8.70;100.00
20003;BME280;10162;41.600;23.806;2023-12-04T07:43:57;95573.88;;;8.38;100.00
20003;BME280;10162;41.600;23.806;2023-12-04T07:46:23;95562.47;;;8.00;100.00
20003;BME280;10162;41.600;23.806;2023-12-04T07:52:42;95577.44;;;8.45;100.00
20003;BME280;10162;41.600;23.806;2023-12-04T07:55:08;95579.81;;;8.54;100.00
20003;BME280;10162;41.600;23.806;2023-12-04T07:57:35;95581.50;;;8.47;100.00
20003;BME280;10162;41.600;23.806;2023-12-04T08:03:55;95593.88;;;8.53;100.00
20003;BME280;10162;41.600;23.806;2023-12-04T08:06:21;95587.69;;;8.46;100.00
20003;BME280;10162;41.600;23.806;2023-12-04T08:12:44;95604.84;;;8.33;100.00
20003;BME280;10162;41.600;23.806;2023-12-04T08:15:12;95614.75;;;8.45;100.00
20003;BME280;10162;41.600;23.806;2023-12-04T08:17:37;95605.59;;;8.49;100.00
20003;BME280;10162;41.600;23.806;2023-12-04T08:23:57;95614.63;;;8.69;100.00
20003;BME280;10162;41.600;23.806;2023-12-04T08:26:24;95632.34;;;8.74;100.00
20003;BME280;10162;41.600;23.806;2023-12-04T08:32:44;95632.94;;;9.15;100.00
20003;BME280;10162;41.600;23.806;2023-12-04T08:35:10;95615.47;;;8.93;100.00
20003;BME280;10162;41.600;23.806;2023-12-04T08:37:35;95608.72;;;8.76;100.00
20003;BME280;10162;41.600;23.806;2023-12-04T08:43:55;95634.34;;;8.95;100.00
20003;BME280;10162;41.600;23.806;2023-12-04T08:46:21;95631.00;;;9.09;100.00
20003;BME280;10162;41.600;23.806;2023-12-04T08:48:50;95624.00;;;9.09;100.00
20003;BME280;10162;41.600;23.806;2023-12-04T08:51:16;95625.97;;;9.07;100.00
20003;BME280;10162;41.600;23.806;2023-12-04T08:53:43;95639.78;;;9.16;100.00
20003;BME280;10162;41.600;23.806;2023-12-04T08:56:09;95615.91;;;9.04;100.00
20003;BME280;10162;41.600;23.806;2023-12-04T08:59:18;95638.50;;;9.35;100.00
20003;BME280;10162;41.600;23.806;2023-12-04T09:01:44;95608.56;;;9.23;100.00
20003;BME280;10162;41.600;23.806;2023-12-04T09:04:10;95616.34;;;9.31;100.00
20003;BME280;10162;41.600;23.806;2023-12-04T09:06:36;95604.16;;;9.23;100.00
20003;BME280;10162;41.600;23.806;2023-12-04T09:12:55;95617.97;;;9.32;100.00
20003;BME280;10162;41.600;23.806;2023-12-04T09:15:21;95600.56;;;9.01;100.00
20003;BME280;10162;41.600;23.806;2023-12-04T09:17:47;95587.38;;;9.03;100.00
20003;BME280;10162;41.600;23.806;2023-12-04T09:24:07;95594.09;;;9.20;100.00
20003;BME280;10162;41.600;23.806;2023-12-04T09:26:34;95581.28;;;9.33;100.00
20003;BME280;10162;41.600;23.806;2023-12-04T09:32:54;95580.03;;;10.11;100.00
20003;BME280;10162;41.600;23.806;2023-12-04T09:35:19;95572.28;;;10.32;100.00
20003;BME280;10162;41.600;23.806;2023-12-04T09:37:45;95577.81;;;10.73;100.00
20003;BME280;10162;41.600;23.806;2023-12-04T09:43:44;95552.91;;;10.77;100.00
20003;BME280;10162;41.600;23.806;2023-12-04T09:46:10;95569.41;;;10.77;100.00
20003;BME280;10162;41.600;23.806;2023-12-04T09:52:30;95567.19;;;10.96;100.00
20003;BME280;10162;41.600;23.806;2023-12-04T09:54:56;95545.16;;;11.05;100.00
20003;BME280;10162;41.600;23.806;2023-12-04T09:57:23;95580.59;;;11.29;100.00
20003;BME280;10162;41.600;23.806;2023-12-04T09:59:54;95574.47;;;11.43;100.00
20003;BME280;10162;41.600;23.806;2023-12-04T10:02:20;95548.63;;;11.33;100.00
20003;BME280;10162;41.600;23.806;2023-12-04T10:04:48;95564.38;;;11.68;100.00
20003;BME280;10162;41.600;23.806;2023-12-04T10:07:14;95559.88;;;11.55;100.00
20003;BME280;10162;41.600;23.806;2023-12-04T10:10:13;95569.69;;;11.74;100.00
20003;BME280;10162;41.600;23.806;2023-12-04T10:12:40;95552.53;;;11.44;100.00
20003;BME280;10162;41.600;23.806;2023-12-04T10:15:09;95530.13;;;11.13;100.00
20003;BME280;10162;41.600;23.806;2023-12-04T10:17:37;95529.53;;;11.39;100.00
20003;BME280;10162;41.600;23.806;2023-12-04T10:20:45;95559.19;;;11.95;100.00
20003;BME280;10162;41.600;23.806;2023-12-04T10:23:16;95551.06;;;11.90;100.00
20003;BME280;10162;41.600;23.806;2023-12-04T10:25:43;95558.09;;;12.18;98.01
20003;BME280;10162;41.600;23.806;2023-12-04T10:28:31;95552.50;;;11.93;98.79
20003;BME280;10162;41.600;23.806;2023-12-04T10:30:57;95528.63;;;11.53;98.13
20003;BME280;10162;41.600;23.806;2023-12-04T10:33:24;95523.53;;;12.01;97.42
20003;BME280;10162;41.600;23.806;2023-12-04T10:35:53;95538.09;;;11.76;97.48
20003;BME280;10162;41.600;23.806;2023-12-04T10:42:28;95546.00;;;12.17;97.79
20003;BME280;10162;41.600;23.806;2023-12-04T10:44:56;95533.31;;;12.74;98.45
20003;BME280;10162;41.600;23.806;2023-12-04T10:47:26;95508.94;;;12.26;96.84
20003;BME280;10162;41.600;23.806;2023-12-04T10:50:26;95534.63;;;12.44;94.09
20003;BME280;10162;41.600;23.806;2023-12-04T10:52:53;95511.91;;;12.64;91.61
20003;BME280;10162;41.600;23.806;2023-12-04T10:55:19;95515.97;;;12.80;93.51
20003;BME280;10162;41.600;23.806;2023-12-04T10:57:47;95502.00;;;12.66;93.95
20003;BME280;10162;41.600;23.806;2023-12-04T11:00:51;95530.59;;;12.48;90.52
20003;BME280;10162;41.600;23.806;2023-12-04T11:03:32;95513.81;;;12.42;91.53
20003;BME280;10162;41.600;23.806;2023-12-04T11:06:01;95532.41;;;12.41;87.89
20003;BME280;10162;41.600;23.806;2023-12-04T11:11:36;95513.56;;;11.83;87.27
20003;BME280;10162;41.600;23.806;2023-12-04T11:14:08;95497.06;;;11.89;88.42
20003;BME280;10162;41.600;23.806;2023-12-04T11:16:47;95508.78;;;12.41;88.71
20003;BME280;10162;41.600;23.806;2023-12-04T11:22:27;95516.66;;;12.41;87.38
20003;BME280;10162;41.600;23.806;2023-12-04T11:24:54;95490.34;;;12.21;87.39
20003;BME280;10162;41.600;23.806;2023-12-04T11:27:22;95510.59;;;12.40;89.48
20003;BME280;10162;41.600;23.806;2023-12-04T11:29:51;95517.09;;;12.51;87.09
20003;BME280;10162;41.600;23.806;2023-12-04T11:32:24;95498.13;;;11.67;85.81
20003;BME280;10162;41.600;23.806;2023-12-04T11:34:59;95497.03;;;12.30;87.08
20003;BME280;10162;41.600;23.806;2023-12-04T11:37:26;95523.41;;;12.63;85.90
20003;BME280;10162;41.600;23.806;2023-12-04T11:40:12;95526.00;;;12.57;82.60
20003;BME280;10162;41.600;23.806;2023-12-04T11:42:38;95517.28;;;12.50;85.93
20003;BME280;10162;41.600;23.806;2023-12-04T11:45:07;95510.44;;;12.08;85.93
20003;BME280;10162;41.600;23.806;2023-12-04T11:47:54;95508.16;;;12.39;83.88
20003;BME280;10162;41.600;23.806;2023-12-04T11:50:29;95485.53;;;12.31;88.52
20003;BME280;10162;41.600;23.806;2023-12-04T11:52:55;95491.88;;;12.50;88.46
20003;BME280;10162;41.600;23.806;2023-12-04T11:55:22;95497.16;;;12.76;87.97
20003;BME280;10162;41.600;23.806;2023-12-04T11:57:53;95519.84;;;13.10;86.22
20003;BME280;10162;41.600;23.806;2023-12-04T12:00:23;95511.31;;;12.69;83.14
20003;BME280;10162;41.600;23.806;2023-12-04T12:05:20;95499.97;;;12.62;85.21
20003;BME280;10162;41.600;23.806;2023-12-04T12:07:46;95526.59;;;12.52;84.46
20003;BME280;10162;41.600;23.806;2023-12-04T12:13:10;95485.50;;;12.12;80.47
20003;BME280;10162;41.600;23.806;2023-12-04T12:15:36;95508.50;;;12.83;86.57
20003;BME280;10162;41.600;23.806;2023-12-04T12:18:22;95529.09;;;12.93;84.69
20003;BME280;10162;41.600;23.806;2023-12-04T12:20:50;95503.69;;;12.87;84.17
20003;BME280;10162;41.600;23.806;2023-12-04T12:23:16;95481.66;;;12.75;82.88
20003;BME280;10162;41.600;23.806;2023-12-04T12:25:42;95492.13;;;12.68;83.94
20003;BME280;10162;41.600;23.806;2023-12-04T12:28:08;95507.25;;;12.73;84.81
20003;BME280;10162;41.600;23.806;2023-12-04T12:30:33;95464.66;;;12.51;82.14
20003;BME280;10162;41.600;23.806;2023-12-04T12:32:59;95493.53;;;12.71;82.91
20003;BME280;10162;41.600;23.806;2023-12-04T12:35:25;95495.78;;;12.20;82.57
20003;BME280;10162;41.600;23.806;2023-12-04T12:51:26;95527.69;;;12.91;82.91
20003;BME280;10162;41.600;23.806;2023-12-04T12:53:56;95516.75;;;12.74;81.54
20003;BME280;10162;41.600;23.806;2023-12-04T12:56:22;95525.66;;;12.79;82.68
20003;BME280;10162;41.600;23.806;2023-12-04T12:58:48;95527.03;;;12.69;83.03
20003;BME280;10162;41.600;23.806;2023-12-04T13:01:15;95524.63;;;12.74;82.23
20003;BME280;10162;41.600;23.806;2023-12-04T13:03:48;95511.09;;;12.70;83.22
20003;BME280;10162;41.600;23.806;2023-12-04T13:06:13;95526.47;;;12.80;84.55
20003;BME280;10162;41.600;23.806;2023-12-04T13:08:39;95515.31;;;12.71;81.09
20003;BME280;10162;41.600;23.806;2023-12-04T13:11:05;95518.34;;;12.68;81.55
20003;BME280;10162;41.600;23.806;2023-12-04T13:16:37;95528.09;;;12.94;81.37
20003;BME280;10162;41.600;23.806;2023-12-04T13:19:02;95511.69;;;12.72;79.67
20003;BME280;10162;41.600;23.806;2023-12-04T13:21:28;95522.72;;;12.48;80.98
20003;BME280;10162;41.600;23.806;2023-12-04T13:24:00;95524.19;;;12.57;80.15
20003;BME280;10162;41.600;23.806;2023-12-04T13:26:26;95515.66;;;12.49;77.71
20003;BME280;10162;41.600;23.806;2023-12-04T13:28:52;95523.69;;;12.34;79.30
20003;BME280;10162;41.600;23.806;2023-12-04T13:31:18;95526.81;;;12.64;79.44
20003;BME280;10162;41.600;23.806;2023-12-04T13:33:55;95507.03;;;12.61;79.67
20003;BME280;10162;41.600;23.806;2023-12-04T13:36:21;95497.72;;;12.59;78.83
20003;BME280;10162;41.600;23.806;2023-12-04T13:38:48;95503.97;;;12.51;79.26
20003;BME280;10162;41.600;23.806;2023-12-04T13:41:14;95518.56;;;12.73;78.09
20003;BME280;10162;41.600;23.806;2023-12-04T13:44:08;95513.19;;;12.34;77.89
20003;BME280;10162;41.600;23.806;2023-12-04T13:46:35;95528.31;;;12.32;76.74
20003;BME280;10162;41.600;23.806;2023-12-04T13:49:01;95522.13;;;12.46;78.61
20003;BME280;10162;41.600;23.806;2023-12-04T13:51:27;95516.97;;;12.79;79.60
20003;BME280;10162;41.600;23.806;2023-12-04T13:57:09;95522.06;;;12.33;80.19
20003;BME280;10162;41.600;23.806;2023-12-04T13:59:39;95528.09;;;12.27;81.05
20003;BME280;10162;41.600;23.806;2023-12-04T14:02:22;95512.53;;;12.19;82.91
20003;BME280;10162;41.600;23.806;2023-12-04T14:04:48;95535.94;;;11.86;84.05
20003;BME280;10162;41.600;23.806;2023-12-04T14:07:14;95516.44;;;11.39;86.56
20003;BME280;10162;41.600;23.806;2023-12-04T14:09:41;95540.59;;;11.13;88.82
20003;BME280;10162;41.600;23.806;2023-12-04T14:12:43;95547.56;;;11.06;90.32
20003;BME280;10162;41.600;23.806;2023-12-04T14:15:08;95529.31;;;10.70;89.93
20003;BME280;10162;41.600;23.806;2023-12-04T14:17:34;95540.28;;;10.15;98.75
20003;BME280;10162;41.600;23.806;2023-12-04T14:20:00;95541.66;;;9.82;100.00
20003;BME280;10162;41.600;23.806;2023-12-04T14:22:35;95534.72;;;9.60;100.00
20003;BME280;10162;41.600;23.806;2023-12-04T14:25:01;95523.00;;;9.18;100.00
20003;BME280;10162;41.600;23.806;2023-12-04T14:27:38;95522.13;;;8.65;100.00
20003;BME280;10162;41.600;23.806;2023-12-04T14:30:09;95526.03;;;8.61;100.00
20003;BME280;10162;41.600;23.806;2023-12-04T14:32:55;95539.03;;;8.69;100.00
20003;BME280;10162;41.600;23.806;2023-12-04T14:35:24;95523.47;;;8.31;100.00
20003;BME280;10162;41.600;23.806;2023-12-04T14:37:53;95541.53;;;8.24;100.00
20003;BME280;10162;41.600;23.806;2023-12-04T14:40:18;95508.97;;;7.89;100.00
20003;BME280;10162;41.600;23.806;2023-12-04T14:42:47;95505.31;;;7.67;100.00
20003;BME280;10162;41.600;23.806;2023-12-04T14:45:13;95513.88;;;7.76;100.00
20003;BME280;10162;41.600;23.806;2023-12-04T14:47:42;95536.78;;;7.88;100.00
20003;BME280;10162;41.600;23.806;2023-12-04T14:50:08;95551.44;;;7.89;100.00
20003;BME280;10162;41.600;23.806;2023-12-04T14:56:48;95536.91;;;7.48;100.00
20003;BME280;10162;41.600;23.806;2023-12-04T15:00:04;95522.56;;;7.60;100.00
20003;BME280;10162;41.600;23.806;2023-12-04T15:06:56;95528.78;;;7.35;100.00
20003;BME280;10162;41.600;23.806;2023-12-04T15:09:25;95536.41;;;7.36;100.00
20003;BME280;10162;41.600;23.806;2023-12-04T15:12:36;95563.09;;;7.14;100.00
20003;BME280;10162;41.600;23.806;2023-12-04T15:15:03;95535.63;;;6.79;100.00
20003;BME280;10162;41.600;23.806;2023-12-04T15:17:28;95549.13;;;6.83;100.00
20003;BME280;10162;41.600;23.806;2023-12-04T15:19:57;95528.81;;;6.78;100.00
20003;BME280;10162;41.600;23.806;2023-12-04T15:22:56;95557.41;;;7.27;100.00
20003;BME280;10162;41.600;23.806;2023-12-04T15:25:23;95554.66;;;7.04;100.00
20003;BME280;10162;41.600;23.806;2023-12-04T15:27:49;95551.72;;;6.83;100.00
20003;BME280;10162;41.600;23.806;2023-12-04T15:30:16;95559.50;;;6.91;100.00
20003;BME280;10162;41.600;23.806;2023-12-04T15:35:36;95557.69;;;6.67;100.00
20003;BME280;10162;41.600;23.806;2023-12-04T15:38:18;95578.84;;;6.88;100.00
20003;BME280;10162;41.600;23.806;2023-12-04T15:40:49;95528.81;;;7.02;100.00
20003;BME280;10162;41.600;23.806;2023-12-04T15:43:19;95597.22;;;7.52;100.00
20003;BME280;10162;41.600;23.806;2023-12-04T15:45:45;95544.06;;;7.30;100.00
20003;BME280;10162;41.600;23.806;2023-12-04T15:48:11;95590.94;;;8.01;100.00
20003;BME280;10162;41.600;23.806;2023-12-04T15:50:37;95575.34;;;7.93;100.00
20003;BME280;10162;41.600;23.806;2023-12-04T15:53:17;95600.50;;;8.09;100.00
20003;BME280;10162;41.600;23.806;2023-12-04T15:55:43;95575.88;;;8.27;100.00
20003;BME280;10162;41.600;23.806;2023-12-04T15:58:09;95584.34;;;8.21;100.00
20003;BME280;10162;41.600;23.806;2023-12-04T16:00:35;95588.91;;;8.36;100.00
20003;BME280;10162;41.600;23.806;2023-12-04T16:07:08;95595.81;;;8.51;100.00
20003;BME280;10162;41.600;23.806;2023-12-04T16:09:43;95573.09;;;8.37;100.00
20003;BME280;10162;41.600;23.806;2023-12-04T16:15:25;95599.53;;;8.57;100.00
20003;BME280;10162;41.600;23.806;2023-12-04T16:17:51;95600.00;;;8.60;100.00
20003;BME280;10162;41.600;23.806;2023-12-04T16:20:17;95614.66;;;8.61;100.00
20003;BME280;10162;41.600;23.806;2023-12-04T16:23:07;95631.53;;;8.74;100.00
20003;BME280;10162;41.600;23.806;2023-12-04T16:25:34;95598.59;;;8.50;100.00
20003;BME280;10162;41.600;23.806;2023-12-04T16:28:00;95608.97;;;8.58;100.00
20003;BME280;10162;41.600;23.806;2023-12-04T16:30:26;95631.91;;;8.62;100.00
20003;BME280;10162;41.600;23.806;2023-12-04T16:33:14;95639.44;;;8.57;100.00
20003;BME280;10162;41.600;23.806;2023-12-04T16:35:39;95609.09;;;8.25;100.00
20003;BME280;10162;41.600;23.806;2023-12-04T16:38:05;95625.50;;;8.42;100.00
20003;BME280;10162;41.600;23.806;2023-12-04T16:40:33;95656.34;;;8.61;100.00
20003;BME280;10162;41.600;23.806;2023-12-04T16:43:09;95628.41;;;8.47;100.00
20003;BME280;10162;41.600;23.806;2023-12-04T16:45:35;95617.38;;;8.29;100.00
20003;BME280;10162;41.600;23.806;2023-12-04T16:48:01;95649.56;;;8.52;100.00
20003;BME280;10162;41.600;23.806;2023-12-04T16:50:28;95629.41;;;8.38;100.00
20003;BME280;10162;41.600;23.806;2023-12-04T16:53:22;95638.53;;;8.42;100.00
20003;BME280;10162;41.600;23.806;2023-12-04T16:55:56;95644.22;;;8.38;100.00
20003;BME280;10162;41.600;23.806;2023-12-04T16:58:23;95633.50;;;8.33;100.00
20003;BME280;10162;41.600;23.806;2023-12-04T17:00:49;95643.31;;;8.31;100.00
20003;BME280;10162;41.600;23.806;2023-12-04T17:03:16;95616.63;;;8.12;100.00
20003;BME280;10162;41.600;23.806;2023-12-04T17:05:42;95616.31;;;8.07;100.00
20003;BME280;10162;41.600;23.806;2023-12-04T17:08:08;95632.75;;;8.08;100.00
20003;BME280;10162;41.600;23.806;2023-12-04T17:10:37;95641.19;;;8.18;100.00
20003;BME280;10162;41.600;23.806;2023-12-04T17:13:05;95630.00;;;8.01;100.00
20003;BME280;10162;41.600;23.806;2023-12-04T17:15:31;95629.47;;;8.14;100.00
20003;BME280;10162;41.600;23.806;2023-12-04T17:17:59;95665.88;;;8.38;100.00